Time;durP1;ratioP1;P1;durP2;ratioP2;P2;SDS_P1;SDS_P2;PMS_P1;PMS_P2;Temp;Humidity;BMP_temperature;BMP_pressure;BME280_temperature;BME280_humidity;BME280_pressure;Samples;Min_cycle;Max_cycle;Signal;HPM_P1;HPM_P2
2021/05/24 04:40:23;;;;;;;6.62;4.10;;;;;;;14.84;94.66;99937.29;1632568;84;21194;-37
2021/05/24 04:42:50;;;;;;;6.22;3.52;;;;;;;14.93;94.87;99932.24;1665127;84;21143;-41
2021/05/24 04:45:17;;;;;;;7.33;3.55;;;;;;;14.98;94.87;99938.73;1661312;83;21103;-41
2021/05/24 04:47:43;;;;;;;7.08;3.75;;;;;;;15.05;94.89;99930.63;1665864;84;21131;-35
2021/05/24 04:50:12;;;;;;;4.03;2.92;;;;;;;15.14;94.70;99927.78;1668052;84;21689;-41
2021/05/24 04:52:38;;;;;;;8.23;3.50;;;;;;;15.24;94.08;99933.67;1669515;84;21638;-36
2021/05/24 04:55:07;;;;;;;3.67;3.10;;;;;;;15.33;93.19;99926.01;1669369;84;21119;-37
2021/05/24 04:57:33;;;;;;;4.53;2.70;;;;;;;15.40;92.01;99924.94;1666346;84;21901;-37
2021/05/24 05:00:00;;;;;;;3.95;2.95;;;;;;;15.47;91.17;99924.33;1663634;84;21119;-37
2021/05/24 05:02:28;;;;;;;6.40;3.10;;;;;;;15.53;90.44;99918.89;1664751;84;21106;-37
2021/05/24 05:04:58;;;;;;;7.12;3.12;;;;;;;15.57;89.66;99913.96;1661731;84;21685;-36
2021/05/24 05:07:27;;;;;;;3.72;3.00;;;;;;;15.62;89.20;99914.70;1666688;84;21110;-40
2021/05/24 05:09:54;;;;;;;4.58;3.30;;;;;;;15.65;88.58;99925.19;1661703;85;21092;-36
2021/05/24 05:12:21;;;;;;;3.37;2.85;;;;;;;15.68;88.68;99918.53;1667700;84;21122;-35
2021/05/24 05:14:49;;;;;;;5.37;3.10;;;;;;;15.73;88.25;99923.23;1666283;84;21586;-36
2021/05/24 05:17:16;;;;;;;5.50;3.20;;;;;;;15.74;87.17;99914.41;1666363;84;21178;-41
2021/05/24 05:19:43;;;;;;;3.52;2.70;;;;;;;15.76;87.01;99913.91;1658404;84;21063;-34
2021/05/24 05:22:10;;;;;;;4.03;3.20;;;;;;;15.79;86.69;99909.02;1645712;85;21669;-37
2021/05/24 05:24:37;;;;;;;5.35;3.17;;;;;;;15.81;86.29;99912.01;1662969;84;21115;-37
2021/05/24 05:27:05;;;;;;;4.92;4.25;;;;;;;15.83;85.41;99917.23;1658969;84;21115;-37
2021/05/24 05:29:36;;;;;;;4.95;3.27;;;;;;;15.83;85.53;99921.19;1659495;84;21150;-35
2021/05/24 05:32:03;;;;;;;5.58;2.75;;;;;;;15.84;85.59;99921.62;1664872;84;21103;-40
2021/05/24 05:34:30;;;;;;;4.78;2.90;;;;;;;15.84;85.08;99926.91;1664460;83;21732;-36
2021/05/24 05:36:58;;;;;;;3.22;2.92;;;;;;;15.82;83.99;99934.83;1662887;84;21143;-36
2021/05/24 05:39:25;;;;;;;5.28;2.58;;;;;;;15.80;83.67;99935.34;1662147;83;21800;-36
2021/05/24 05:42:16;;;;;;;4.15;3.45;;;;;;;15.78;83.52;99932.34;1663990;84;21563;-35
2021/05/24 05:45:08;;;;;;;3.50;2.87;;;;;;;15.76;83.71;99925.77;1663295;84;21067;-40
2021/05/24 05:47:41;;;;;;;4.92;3.37;;;;;;;15.79;84.13;99930.98;1658084;84;21406;-40
2021/05/24 05:50:15;;;;;;;6.83;3.35;;;;;;;15.83;84.34;99922.09;1660941;84;21130;-41
2021/05/24 05:52:54;;;;;;;4.35;3.45;;;;;;;15.86;84.26;99925.08;1667173;84;21084;-40
2021/05/24 05:55:45;;;;;;;3.85;3.45;;;;;;;15.88;84.43;99929.84;1666956;84;21103;-40
2021/05/24 05:58:49;;;;;;;4.95;3.37;;;;;;;15.89;84.29;99924.55;1664090;84;21469;-41
2021/05/24 06:02:03;;;;;;;5.83;4.12;;;;;;;15.92;84.24;99923.59;1665657;84;21098;-41
2021/05/24 06:04:42;;;;;;;3.90;3.52;;;;;;;15.93;83.72;99918.26;1664724;84;21043;-40
2021/05/24 06:07:09;;;;;;;3.27;2.98;;;;;;;15.94;82.63;99920.02;1667711;83;21636;-36
2021/05/24 06:09:36;;;;;;;3.92;3.02;;;;;;;15.98;82.92;99909.36;1670729;83;21280;-40
2021/05/24 06:12:04;;;;;;;4.42;3.35;;;;;;;16.02;82.68;99899.14;1663724;84;21710;-40
2021/05/24 06:14:31;;;;;;;6.03;3.30;;;;;;;16.07;81.72;99899.42;1666524;84;21059;-40
2021/05/24 06:16:58;;;;;;;3.50;3.15;;;;;;;16.14;81.84;99897.01;1665076;84;22292;-40
2021/05/24 06:20:05;;;;;;;7.15;3.65;;;;;;;16.22;80.61;99899.41;1663687;84;21106;-41
2021/05/24 06:23:34;;;;;;;3.50;2.90;;;;;;;16.32;80.17;99903.98;1659000;84;21622;-36
2021/05/24 06:27:45;;;;;;;4.80;3.52;;;;;;;16.46;80.20;99903.09;1663259;84;21662;-41
2021/05/24 06:31:36;;;;;;;5.42;2.77;;;;;;;16.60;79.39;99906.66;1635750;84;21149;-41
2021/05/24 06:46:29;;;;;;;3.92;3.05;;;;;;;16.64;78.65;99917.52;1672448;83;21772;-38
2021/05/24 06:50:03;;;;;;;3.15;2.85;;;;;;;16.67;78.53;99914.33;1666681;83;21023;-42
2021/05/24 06:52:42;;;;;;;5.37;3.25;;;;;;;16.76;78.10;99921.16;1664787;84;21079;-45
2021/05/24 06:55:09;;;;;;;4.28;3.17;;;;;;;16.79;78.33;99923.69;1667655;83;21059;-44
2021/05/24 06:57:43;;;;;;;8.65;3.98;;;;;;;16.82;79.95;99919.64;1666596;84;21074;-38
2021/05/24 07:00:11;;;;;;;4.45;3.60;;;;;;;16.84;79.25;99927.05;1664338;84;21074;-37
2021/05/24 07:02:56;;;;;;;3.52;3.20;;;;;;;16.85;80.02;99922.63;1667450;83;21441;-41
2021/05/24 07:05:47;;;;;;;8.98;4.15;;;;;;;16.86;80.73;99927.86;1664229;84;21038;-43
2021/05/24 07:08:14;;;;;;;3.75;3.33;;;;;;;16.87;80.81;99926.08;1670067;84;21114;-37
2021/05/24 07:10:41;;;;;;;8.60;3.83;;;;;;;16.90;80.93;99933.92;1667581;84;21064;-37
2021/05/24 07:13:29;;;;;;;3.98;3.55;;;;;;;16.90;81.39;99932.60;1670550;83;21840;-42
2021/05/24 07:17:15;;;;;;;9.55;3.98;;;;;;;16.89;80.79;99923.81;1661669;84;21570;-37
2021/05/24 07:31:45;;;;;;;4.95;3.52;;;;;;;16.95;81.39;99935.51;1662397;84;21055;-45
2021/05/24 07:35:06;;;;;;;5.37;4.12;;;;;;;16.96;81.59;99930.63;1667920;84;21154;-39
2021/05/24 07:38:22;;;;;;;5.20;3.45;;;;;;;16.96;81.42;99927.13;1663580;84;21123;-37
2021/05/24 07:41:01;;;;;;;5.90;3.52;;;;;;;16.99;80.86;99923.94;1661985;84;21134;-37
2021/05/24 07:44:10;;;;;;;4.60;3.35;;;;;;;17.05;81.17;99924.63;1663188;83;21176;-42
2021/05/24 07:46:44;;;;;;;3.60;3.30;;;;;;;17.11;80.71;99925.31;1661474;84;21097;-37
2021/05/24 07:49:48;;;;;;;4.90;2.90;;;;;;;17.15;79.57;99924.28;1643441;84;21073;-37
2021/05/24 07:53:04;;;;;;;2.65;2.45;;;;;;;17.12;79.96;99918.25;1679670;83;21685;-37
2021/05/24 07:56:39;;;;;;;5.50;3.62;;;;;;;17.02;79.29;99934.84;1666899;84;21103;-39
2021/05/24 08:12:33;;;;;;;6.90;3.83;;;;;;;17.12;78.18;99936.29;1661407;84;21119;-41
2021/05/24 08:15:36;;;;;;;5.80;2.40;;;;;;;17.18;79.31;99934.77;1664219;84;21098;-42
2021/05/24 08:18:27;;;;;;;7.72;3.25;;;;;;;17.19;79.15;99931.20;1663982;84;21099;-37
2021/05/24 08:21:20;;;;;;;3.45;2.40;;;;;;;17.17;79.26;99933.50;1664974;83;21685;-38
2021/05/24 08:24:34;;;;;;;3.98;2.52;;;;;;;;;;1661830;84;21178;-43
2021/05/24 08:27:38;;;;;;;4.45;2.58;;;;;;;17.25;78.88;99946.00;1647742;84;21713;-37
2021/05/24 08:30:23;;;;;;;5.15;3.22;;;;;;;17.35;77.30;99938.18;1663193;84;21741;-37
2021/05/24 08:32:50;;;;;;;6.35;2.52;;;;;;;17.44;77.22;99941.82;1660351;84;21131;-37
2021/05/24 08:35:17;;;;;;;2.42;1.98;;;;;;;17.46;76.91;99941.80;1668462;84;21047;-38
2021/05/24 08:37:45;;;;;;;2.30;1.60;;;;;;;17.44;77.04;99933.02;1663228;84;21127;-39
2021/05/24 08:40:13;;;;;;;5.00;2.55;;;;;;;17.41;76.05;99931.82;1661398;84;21562;-46
2021/05/24 08:42:43;;;;;;;3.77;2.15;;;;;;;17.51;76.85;99927.92;1649831;84;21108;-43
2021/05/24 08:45:37;;;;;;;2.52;1.50;;;;;;;17.72;76.65;99918.43;1614421;85;21079;-38
2021/05/24 08:48:26;;;;;;;1.47;1.37;;;;;;;17.97;74.42;99915.77;1613715;86;21131;-36
2021/05/24 08:50:52;;;;;;;3.20;1.60;;;;;;;18.34;71.87;99909.98;1635341;86;22369;-42
2021/05/24 08:53:20;;;;;;;1.62;1.20;;;;;;;18.50;71.65;99911.59;1621210;86;21155;-37
2021/05/24 08:55:48;;;;;;;2.27;1.37;;;;;;;18.59;70.25;99908.57;1637080;86;21074;-43
2021/05/24 08:58:14;;;;;;;1.77;1.30;;;;;;;18.59;71.15;99914.73;1608276;85;21133;-43
2021/05/24 09:00:41;;;;;;;6.97;2.45;;;;;;;18.57;70.15;99914.41;1611711;86;21105;-38
2021/05/24 09:03:23;;;;;;;6.05;2.00;;;;;;;18.64;71.27;99912.38;1639775;85;21180;-43
2021/05/24 09:05:53;;;;;;;5.73;1.73;;;;;;;18.78;70.96;99910.06;1638956;86;21059;-42
2021/05/24 09:08:36;;;;;;;3.65;1.32;;;;;;;18.95;69.20;99908.92;1612552;85;21145;-37
2021/05/24 09:11:05;;;;;;;1.65;0.82;;;;;;;19.00;68.62;99908.75;1620997;86;21558;-42
2021/05/24 09:13:34;;;;;;;1.57;0.30;;;;;;;18.89;67.43;99923.75;1633794;85;21513;-36
2021/05/24 09:16:01;;;;;;;3.15;0.10;;;;;;;18.74;66.62;99919.08;1634424;86;21824;-43
2021/05/24 09:18:28;;;;;;;0.30;0.10;;;;;;;18.60;66.58;99924.40;1651490;84;21134;-39
2021/05/24 09:20:56;;;;;;;0.85;0.10;;;;;;;18.59;66.93;99939.90;1631888;86;21127;-38
2021/05/24 09:23:24;;;;;;;1.00;0.20;;;;;;;18.72;67.00;99929.72;1635745;86;21127;-39
2021/05/24 09:26:07;;;;;;;0.25;0.25;;;;;;;18.78;65.00;99928.14;1632790;86;21678;-39
2021/05/24 09:32:53;;;;;;;1.42;0.40;;;;;;;18.84;66.28;99938.53;1612321;86;21159;-44
2021/05/24 09:35:23;;;;;;;0.28;0.20;;;;;;;18.75;65.63;99951.27;1637726;84;21149;-38
2021/05/24 09:37:50;;;;;;;0.62;0.20;;;;;;;18.72;65.68;99966.81;1638883;85;21112;-42
2021/05/24 09:40:21;;;;;;;3.92;0.20;;;;;;;18.57;65.34;99976.66;1636618;86;21472;-44
2021/05/24 09:42:48;;;;;;;1.10;0.20;;;;;;;18.43;66.83;99978.94;1641908;85;21119;-44
2021/05/24 09:45:16;;;;;;;0.17;0.10;;;;;;;18.33;66.68;99964.73;1653840;85;21066;-46
2021/05/24 09:47:44;;;;;;;0.13;0.13;;;;;;;18.26;64.81;99979.55;1646973;85;21139;-45
2021/05/24 09:50:19;;;;;;;1.12;0.30;;;;;;;18.30;66.00;99969.27;1646478;84;21071;-45
2021/05/24 09:52:47;;;;;;;1.65;0.20;;;;;;;18.50;67.46;99942.92;1646002;85;21685;-45
2021/05/24 09:55:22;;;;;;;0.35;0.30;;;;;;;18.77;65.04;99994.46;1654045;85;21563;-45
2021/05/24 09:57:58;;;;;;;0.40;0.17;;;;;;;18.78;63.83;99952.46;1625946;86;21166;-44
2021/05/24 10:00:30;;;;;;;0.57;0.10;;;;;;;18.66;62.63;99981.59;1635166;85;21554;-38
2021/05/24 10:02:58;;;;;;;2.17;0.30;;;;;;;18.46;64.15;99969.57;1643650;85;21118;-39
2021/05/24 10:05:44;;;;;;;0.85;0.20;;;;;;;18.22;65.66;99951.02;1645332;85;21665;-45
2021/05/24 10:08:11;;;;;;;0.20;0.20;;;;;;;18.07;65.42;99966.12;1648604;85;21685;-37
2021/05/24 10:10:38;;;;;;;0.20;0.20;;;;;;;17.90;65.11;99967.19;1645306;85;21045;-44
2021/05/24 10:13:07;;;;;;;2.87;0.30;;;;;;;17.82;66.61;99966.14;1644679;85;21144;-39
2021/05/24 10:15:37;;;;;;;0.95;0.37;;;;;;;17.89;68.02;99999.87;1642700;85;21068;-44
2021/05/24 10:18:05;;;;;;;2.47;1.45;;;;;;;17.85;66.85;99989.83;1622207;86;21118;-43
2021/05/24 10:20:33;;;;;;;0.62;0.62;;;;;;;17.70;67.99;99983.73;1648110;85;21067;-45
2021/05/24 10:23:00;;;;;;;1.30;0.68;;;;;;;17.50;67.89;100001.11;1647469;85;21135;-37
2021/05/24 10:25:40;;;;;;;0.65;0.65;;;;;;;17.27;69.21;100015.53;1650223;85;21016;-45
2021/05/24 10:28:08;;;;;;;1.65;0.90;;;;;;;17.03;69.99;100005.28;1645895;85;21190;-44
2021/05/24 10:30:42;;;;;;;1.02;0.90;;;;;;;16.81;71.29;100006.39;1651944;85;21076;-44
2021/05/24 10:33:13;;;;;;;2.08;1.07;;;;;;;16.65;72.38;100011.25;1629863;86;21162;-39
2021/05/24 10:35:44;;;;;;;2.30;1.20;;;;;;;16.54;73.25;100013.80;1656712;85;21396;-37
2021/05/24 10:38:33;;;;;;;1.02;0.93;;;;;;;16.48;73.51;100009.55;1626283;85;21148;-39
2021/05/24 10:41:18;;;;;;;1.87;1.52;;;;;;;16.38;75.05;100010.72;1649588;85;21107;-39
2021/05/24 10:43:53;;;;;;;1.40;1.30;;;;;;;16.33;76.17;99999.41;1656709;84;22260;-38
2021/05/24 10:46:32;;;;;;;4.20;1.85;;;;;;;16.27;76.97;100033.45;1664946;84;21086;-44
2021/05/24 10:49:26;;;;;;;2.90;2.00;;;;;;;16.18;77.05;100013.92;1661956;84;21451;-43
2021/05/24 10:52:04;;;;;;;2.20;2.00;;;;;;;16.03;79.19;100009.05;1644323;84;21748;-44
2021/05/24 10:54:34;;;;;;;4.47;2.22;;;;;;;15.85;80.76;100020.50;1662038;84;21120;-44
2021/05/24 10:57:07;;;;;;;3.40;2.10;;;;;;;15.67;82.50;100031.06;1664489;84;21135;-37
2021/05/24 10:59:45;;;;;;;3.90;2.30;;;;;;;15.52;84.16;100037.98;1663257;84;21388;-38
2021/05/24 11:02:30;;;;;;;6.55;5.67;;;;;;;15.37;85.29;100029.15;1665184;84;21110;-39
2021/05/24 11:05:26;;;;;;;12.18;9.58;;;;;;;15.29;89.04;100041.63;1661533;84;21114;-43
2021/05/24 11:07:56;;;;;;;11.15;8.58;;;;;;;15.12;91.33;100045.50;1623087;86;21436;-44
2021/05/24 11:10:26;;;;;;;11.53;9.85;;;;;;;14.92;92.07;100046.86;1622195;86;21389;-44
2021/05/24 11:13:13;;;;;;;11.25;8.70;;;;;;;14.77;93.62;100055.94;1619960;86;21153;-44
2021/05/24 11:15:42;;;;;;;8.90;8.00;;;;;;;14.63;95.02;100061.05;1624254;86;21126;-44
2021/05/24 11:18:21;;;;;;;10.98;8.23;;;;;;;14.49;95.69;100061.76;1613463;86;21975;-38
2021/05/24 11:21:04;;;;;;;9.08;6.95;;;;;;;14.38;96.33;100075.12;1629259;86;21093;-38
2021/05/24 11:26:37;;;;;;;5.30;4.67;;;;;;;14.23;96.14;100091.18;1627219;86;21107;-37
2021/05/24 11:29:19;;;;;;;8.28;4.67;;;;;;;14.18;96.51;100092.16;1625801;86;21020;-36
2021/05/24 11:31:52;;;;;;;8.53;4.70;;;;;;;14.13;97.36;100097.95;1625300;86;21066;-37
2021/05/24 11:34:34;;;;;;;4.50;4.10;;;;;;;14.10;97.46;100098.43;1622288;86;21414;-40
2021/05/24 11:37:07;;;;;;;3.80;3.30;;;;;;;14.08;98.10;100102.83;1622645;86;21129;-37
2021/05/24 11:39:46;;;;;;;3.77;2.72;;;;;;;14.06;96.50;100102.45;1630307;86;21089;-38
2021/05/24 11:42:27;;;;;;;2.33;1.77;;;;;;;14.02;96.72;100110.83;1613877;86;21129;-43
2021/05/24 11:44:58;;;;;;;2.92;1.77;;;;;;;13.95;96.28;100107.89;1638334;85;21606;-37
2021/05/24 11:47:24;;;;;;;2.25;1.80;;;;;;;13.90;96.91;100129.89;1667904;84;21111;-38
2021/05/24 11:50:04;;;;;;;2.90;1.80;;;;;;;13.85;97.51;100128.20;1666981;83;21064;-38
2021/05/24 11:52:36;;;;;;;2.10;1.45;;;;;;;13.84;98.11;100125.59;1661697;84;21135;-38
2021/05/24 11:55:13;;;;;;;2.47;1.70;;;;;;;13.82;97.73;100132.66;1663645;85;21178;-43
2021/05/24 11:57:42;;;;;;;2.17;1.55;;;;;;;13.77;96.72;100132.72;1662493;84;21107;-43
2021/05/24 12:00:11;;;;;;;1.47;1.32;;;;;;;13.74;96.75;100147.25;1669172;84;21090;-38
2021/05/24 12:02:42;;;;;;;2.23;1.33;;;;;;;13.71;96.50;100152.53;1663431;84;21510;-38
2021/05/24 12:05:10;;;;;;;2.40;1.30;;;;;;;13.68;96.50;100153.02;1663291;85;21280;-44
2021/05/24 12:07:37;;;;;;;0.85;0.80;;;;;;;13.62;95.28;100164.48;1659042;86;21973;-38
2021/05/24 12:10:07;;;;;;;2.05;1.25;;;;;;;13.56;94.39;100170.70;1673285;84;21594;-39
2021/05/24 12:12:38;;;;;;;0.88;0.88;;;;;;;13.52;94.67;100182.62;1660138;85;21657;-38
2021/05/24 12:15:11;;;;;;;3.15;0.65;;;;;;;13.48;94.60;100190.11;1670163;84;21024;-43
2021/05/24 12:17:37;;;;;;;0.50;0.50;;;;;;;13.45;94.40;100187.51;1666426;85;21111;-38
2021/05/24 12:20:09;;;;;;;1.47;0.90;;;;;;;13.42;94.06;100189.75;1669242;85;21083;-43
2021/05/24 12:22:41;;;;;;;0.72;0.72;;;;;;;13.40;94.12;100183.66;1662237;85;21110;-38
2021/05/24 12:25:09;;;;;;;0.70;0.70;;;;;;;13.39;94.17;100178.39;1670103;84;21044;-43
2021/05/24 12:27:38;;;;;;;0.62;0.62;;;;;;;13.42;94.88;100177.05;1659860;86;21099;-43
2021/05/24 12:30:22;;;;;;;1.42;0.50;;;;;;;13.45;94.66;100190.14;1659101;84;21048;-44
2021/05/24 12:33:09;;;;;;;1.17;0.82;;;;;;;13.45;93.95;100192.77;1659783;86;21107;-43
2021/05/24 12:35:40;;;;;;;1.00;0.90;;;;;;;13.43;93.39;100194.55;1687904;84;21038;-39
2021/05/24 12:38:33;;;;;;;2.08;0.82;;;;;;;13.40;94.16;100195.48;1658934;86;21111;-42
2021/05/24 12:41:03;;;;;;;1.47;0.72;;;;;;;13.42;95.08;100192.82;1688030;84;21551;-38
2021/05/24 12:43:32;;;;;;;2.08;1.00;;;;;;;13.44;94.20;100193.21;1680443;84;21108;-42
2021/05/24 12:45:58;;;;;;;2.08;1.20;;;;;;;13.48;93.71;100197.99;1660037;86;21063;-37
2021/05/24 12:48:30;;;;;;;2.05;1.32;;;;;;;13.48;92.68;100200.63;1660002;86;21166;-43
2021/05/24 12:50:57;;;;;;;1.53;1.10;;;;;;;13.47;92.86;100209.41;1660045;86;21445;-39
2021/05/24 12:53:25;;;;;;;1.62;1.12;;;;;;;13.43;92.29;100219.07;1659443;86;21082;-38
2021/05/24 12:55:54;;;;;;;3.00;1.20;;;;;;;13.41;93.41;100231.82;1658936;85;21075;-41
2021/05/24 12:58:22;;;;;;;1.30;1.20;;;;;;;13.37;93.02;100229.66;1659632;86;21110;-38
2021/05/24 13:00:55;;;;;;;2.33;1.77;;;;;;;13.36;92.89;100226.62;1669763;84;21586;-38
2021/05/24 13:03:48;;;;;;;;;;;;;;;13.37;92.91;100238.86;1672395;84;21118;-40
2021/05/24 13:06:16;;;;;;;2.10;1.90;;;;;;;13.36;92.66;100237.58;1685660;84;20166;-43
2021/05/24 13:09:00;;;;;;;3.72;2.37;;;;;;;13.31;91.84;100252.07;1658730;86;21654;-43
2021/05/24 13:11:25;;;;;;;4.72;2.47;;;;;;;13.25;92.19;100254.33;1657279;86;21027;-42
2021/05/24 13:14:08;;;;;;;1.15;1.07;;;;;;;13.18;92.23;100251.31;1664501;84;21094;-37
2021/05/24 13:16:38;;;;;;;3.47;2.30;;;;;;;13.09;90.62;100281.61;1676429;84;21062;-43
2021/05/24 13:27:52;;;;;;;1.30;1.20;;;;;;;12.86;91.99;100268.71;1631764;88;21720;-37
2021/05/24 13:30:13;;;;;;;4.42;1.10;;;;;;;12.84;91.90;100286.69;1628835;88;21137;-37
2021/05/24 13:32:40;;;;;;;1.52;1.27;;;;;;;12.79;91.06;100284.10;1631899;88;21691;-37
2021/05/24 13:35:28;;;;;;;2.12;1.25;;;;;;;12.77;90.40;100276.69;1632162;88;21093;-42
2021/05/24 13:37:56;;;;;;;2.22;1.37;;;;;;;12.78;91.18;100279.30;1632002;88;21188;-38
2021/05/24 13:40:23;;;;;;;3.45;1.30;;;;;;;12.76;90.37;100298.14;1631494;87;21047;-39
2021/05/24 13:42:50;;;;;;;1.55;1.00;;;;;;;12.77;90.35;100276.69;1632384;86;21427;-37
2021/05/24 13:45:20;;;;;;;1.40;1.30;;;;;;;12.76;90.71;100288.95;1630078;88;21658;-37
2021/05/24 13:47:48;;;;;;;2.40;1.02;;;;;;;12.75;90.61;100296.81;1631460;88;21685;-37
2021/05/24 13:50:16;;;;;;;1.20;1.05;;;;;;;12.74;91.08;100287.20;1631396;88;21127;-37
2021/05/24 13:52:43;;;;;;;1.17;1.07;;;;;;;12.73;90.77;100302.53;1631671;88;21150;-38
2021/05/24 13:55:12;;;;;;;1.52;0.88;;;;;;;12.67;90.31;100300.83;1631435;88;21148;-42
2021/05/24 13:57:38;;;;;;;2.35;1.42;;;;;;;12.66;91.17;100299.54;1643103;87;21108;-37
2021/05/24 14:00:07;;;;;;;4.20;1.25;;;;;;;12.64;91.52;100297.35;1636768;87;21027;-37
2021/05/24 14:02:34;;;;;;;3.20;1.52;;;;;;;12.65;91.30;100313.55;1637080;86;21628;-43
2021/05/24 14:05:01;;;;;;;1.60;1.10;;;;;;;12.64;91.25;100305.22;1674165;84;21562;-37
2021/05/24 14:07:28;;;;;;;1.82;1.20;;;;;;;12.63;91.40;100308.30;1687728;85;21126;-40
2021/05/24 14:09:56;;;;;;;1.57;0.98;;;;;;;12.63;90.86;100329.29;1676354;85;21016;-42
2021/05/24 14:12:22;;;;;;;1.42;1.10;;;;;;;12.61;90.56;100331.52;1664617;86;21112;-44
2021/05/24 14:14:51;;;;;;;1.60;1.30;;;;;;;12.56;90.44;100342.03;1665658;85;21020;-43
2021/05/24 14:17:19;;;;;;;1.10;1.00;;;;;;;12.50;90.05;100343.39;1665248;86;21234;-43
2021/05/24 14:19:46;;;;;;;1.37;1.20;;;;;;;12.45;90.46;100349.11;1662979;84;21388;-38
2021/05/24 14:22:14;;;;;;;1.87;1.10;;;;;;;12.41;90.73;100358.78;1671014;85;21126;-38
